Time;durP1;ratioP1;P1;durP2;ratioP2;P2;SDS_P1;SDS_P2;PMS_P1;PMS_P2;Temp;Humidity;BMP_temperature;BMP_pressure;BME280_temperature;BME280_humidity;BME280_pressure;Samples;Min_cycle;Max_cycle;Signal;HPM_P1;HPM_P2
2023/08/02 00:01:14;;;;;;;10.00;7.60;;;;;;;17.37;96.67;96777.34;107365;1273;24947;-81
2023/08/02 00:03:42;;;;;;;9.20;7.80;;;;;;;17.22;95.93;96780.89;107269;1273;22620;-81
2023/08/02 00:06:21;;;;;;;9.50;8.10;;;;;;;17.02;96.86;96773.87;107306;1273;22824;-79
2023/08/02 00:08:49;;;;;;;9.40;8.30;;;;;;;16.95;96.75;96775.55;107331;1273;22565;-79
2023/08/02 00:11:18;;;;;;;8.60;6.20;;;;;;;16.75;96.71;96775.55;107326;1273;22809;-79
2023/08/02 00:13:46;;;;;;;8.60;7.70;;;;;;;16.68;97.11;96779.40;107288;1273;23340;-79
2023/08/02 00:16:14;;;;;;;8.40;7.50;;;;;;;16.62;96.73;96778.45;106973;1273;22547;-79
2023/08/02 00:18:42;;;;;;;11.40;7.30;;;;;;;16.55;97.31;96787.67;107370;1273;24260;-79
2023/08/02 00:21:10;;;;;;;9.70;6.50;;;;;;;16.45;97.79;96793.09;107332;1273;22565;-79
2023/08/02 00:23:38;;;;;;;8.00;6.20;;;;;;;16.34;98.11;96792.70;107271;1265;22603;-79
2023/08/02 00:26:06;;;;;;;7.50;6.30;;;;;;;16.26;98.24;96792.72;107284;1273;22612;-79
2023/08/02 00:28:34;;;;;;;8.90;6.00;;;;;;;16.25;99.19;96798.91;107127;1273;156041;-79
2023/08/02 00:31:02;;;;;;;10.00;7.00;;;;;;;16.18;99.30;96801.29;107275;1273;23153;-79
2023/08/02 00:33:30;;;;;;;8.90;6.20;;;;;;;16.14;99.60;96802.21;107195;1273;22530;-78
2023/08/02 00:35:58;;;;;;;7.90;6.40;;;;;;;16.08;99.91;96801.49;107366;1273;25263;-81
2023/08/02 00:38:26;;;;;;;8.00;5.80;;;;;;;16.02;100.00;96801.15;107295;1273;23769;-79
2023/08/02 00:41:01;;;;;;;9.60;6.10;;;;;;;15.98;100.00;96797.52;107352;1273;22566;-79
2023/08/02 00:43:29;;;;;;;8.00;5.80;;;;;;;15.95;100.00;96795.73;107315;1273;25332;-80
2023/08/02 00:45:57;;;;;;;9.10;5.40;;;;;;;15.91;100.00;96794.97;107268;1273;24199;-80
2023/08/02 00:48:25;;;;;;;7.60;4.90;;;;;;;15.89;100.00;96794.55;107378;1273;24260;-80
2023/08/02 00:50:54;;;;;;;8.00;5.10;;;;;;;15.85;100.00;96792.16;107262;1273;24368;-79
2023/08/02 00:53:22;;;;;;;7.10;5.20;;;;;;;15.79;100.00;96788.71;107265;1273;22765;-80
2023/08/02 00:55:50;;;;;;;7.50;4.70;;;;;;;15.75;100.00;96794.36;107308;1273;22636;-80
2023/08/02 00:58:18;;;;;;;7.50;5.10;;;;;;;15.70;100.00;96798.77;107297;1273;24434;-80
2023/08/02 01:00:46;;;;;;;7.50;5.00;;;;;;;15.65;100.00;96801.36;107320;1262;23238;-80
2023/08/02 01:03:15;;;;;;;7.20;5.20;;;;;;;15.62;100.00;96801.93;107271;1273;22530;-81
2023/08/02 01:05:58;;;;;;;9.40;5.60;;;;;;;15.59;100.00;96805.59;107346;1273;22517;-80
2023/08/02 01:08:33;;;;;;;9.00;4.70;;;;;;;15.57;100.00;96812.98;107315;1273;22514;-80
2023/08/02 01:11:13;;;;;;;6.10;4.90;;;;;;;15.56;100.00;96812.98;107310;1273;22519;-81
2023/08/02 01:13:47;;;;;;;7.30;5.00;;;;;;;15.54;100.00;96817.36;107265;1273;24189;-81
2023/08/02 01:16:18;;;;;;;9.00;5.50;;;;;;;15.54;100.00;96816.98;107248;1273;22522;-81
2023/08/02 01:18:46;;;;;;;11.20;5.10;;;;;;;15.54;100.00;96816.96;107225;1273;24232;-80
2023/08/02 01:21:14;;;;;;;7.00;5.00;;;;;;;15.53;100.00;96816.71;107096;1273;25465;-80
2023/08/02 01:23:43;;;;;;;9.40;5.10;;;;;;;15.51;100.00;96821.71;107244;1249;22524;-80
2023/08/02 01:26:11;;;;;;;6.70;5.30;;;;;;;15.49;100.00;96822.61;107376;1273;22908;-80
2023/08/02 01:28:45;;;;;;;7.80;4.80;;;;;;;15.46;100.00;96821.69;107316;1273;22641;-80
2023/08/02 01:31:15;;;;;;;9.60;5.70;;;;;;;15.43;100.00;96817.92;107382;1273;22514;-80
2023/08/02 01:33:50;;;;;;;8.00;5.30;;;;;;;15.45;100.00;96816.33;107260;1259;26720;-80
2023/08/02 01:36:18;;;;;;;6.40;4.80;;;;;;;15.43;100.00;96820.09;107228;1273;22631;-80
2023/08/02 01:38:46;;;;;;;7.90;5.30;;;;;;;15.44;100.00;96822.43;107256;1273;23203;-80
2023/08/02 01:41:14;;;;;;;6.30;5.20;;;;;;;15.42;100.00;96824.42;107293;1273;24417;-81
2023/08/02 01:43:42;;;;;;;7.90;5.30;;;;;;;15.42;100.00;96825.12;107344;1273;22627;-79
2023/08/02 01:46:10;;;;;;;6.60;4.70;;;;;;;15.41;100.00;96825.55;107295;1273;22608;-78
2023/08/02 01:48:38;;;;;;;8.80;5.10;;;;;;;15.40;100.00;96828.70;107316;1273;22764;-79
2023/08/02 01:51:06;;;;;;;9.00;5.10;;;;;;;15.40;100.00;96829.81;107256;1273;22532;-79
2023/08/02 01:53:34;;;;;;;6.80;4.80;;;;;;;15.41;100.00;96828.35;107271;1273;24390;-79
2023/08/02 01:56:02;;;;;;;6.90;4.90;;;;;;;15.42;100.00;96826.80;107164;1273;22878;-80
2023/08/02 01:58:30;;;;;;;7.70;5.30;;;;;;;15.40;100.00;96828.39;107260;1273;22535;-80
2023/08/02 02:00:58;;;;;;;7.00;4.90;;;;;;;15.42;100.00;96830.54;107319;1273;25387;-79
2023/08/02 02:03:27;;;;;;;7.90;4.90;;;;;;;15.42;100.00;96831.85;107287;1273;22639;-79
2023/08/02 02:05:55;;;;;;;9.10;5.40;;;;;;;15.41;100.00;96830.98;107306;1273;22543;-79
2023/08/02 02:08:23;;;;;;;6.40;5.00;;;;;;;15.42;100.00;96833.87;107242;1273;24065;-79
2023/08/02 02:10:52;;;;;;;10.30;5.40;;;;;;;15.41;100.00;96837.66;107267;1273;24344;-79
2023/08/02 02:13:23;;;;;;;14.30;6.00;;;;;;;15.40;100.00;96839.58;107188;1273;25320;-80
2023/08/02 02:15:51;;;;;;;5.70;4.90;;;;;;;15.38;100.00;96840.60;107310;1273;22620;-80
2023/08/02 02:18:19;;;;;;;7.70;5.50;;;;;;;15.37;100.00;96839.88;107192;1273;25380;-79
2023/08/02 02:20:47;;;;;;;9.40;6.30;;;;;;;15.36;100.00;96843.52;107265;1273;22528;-80
2023/08/02 02:23:15;;;;;;;8.70;5.00;;;;;;;15.35;100.00;96842.77;107332;1273;25390;-80
2023/08/02 02:25:43;;;;;;;7.20;5.40;;;;;;;15.34;100.00;96846.73;107268;1273;25407;-80
2023/08/02 02:28:12;;;;;;;8.10;5.10;;;;;;;15.34;100.00;96849.52;107258;1273;24269;-80
2023/08/02 02:30:42;;;;;;;7.40;5.60;;;;;;;15.36;100.00;96854.61;107280;1273;24318;-80
2023/08/02 02:33:12;;;;;;;7.50;6.20;;;;;;;15.36;100.00;96851.73;107274;1273;22681;-80
2023/08/02 02:35:40;;;;;;;9.30;6.10;;;;;;;15.34;100.00;96854.26;107297;1273;22775;-80
2023/08/02 02:38:08;;;;;;;8.60;5.90;;;;;;;15.32;100.00;96859.25;107279;1273;22514;-80
2023/08/02 02:40:36;;;;;;;9.70;6.40;;;;;;;15.32;100.00;96862.51;107354;1273;22553;-80
2023/08/02 02:43:04;;;;;;;10.90;6.60;;;;;;;15.32;100.00;96865.14;107327;1273;26587;-80
2023/08/02 02:45:32;;;;;;;16.50;7.00;;;;;;;15.34;100.00;96863.16;107351;1273;24180;-80
2023/08/02 02:48:00;;;;;;;9.70;6.40;;;;;;;15.34;100.00;96867.67;107293;1273;25396;-80
2023/08/02 02:50:28;;;;;;;8.60;6.00;;;;;;;15.34;100.00;96873.09;107210;1273;25468;-78
2023/08/02 02:52:56;;;;;;;8.90;5.80;;;;;;;15.32;100.00;96872.44;107216;1273;22565;-79
2023/08/02 02:55:24;;;;;;;6.70;5.60;;;;;;;15.32;100.00;96874.20;107247;1273;22559;-79
2023/08/02 02:57:52;;;;;;;7.70;5.70;;;;;;;15.31;100.00;96876.35;107289;1273;24364;-79
2023/08/02 03:00:20;;;;;;;8.10;6.40;;;;;;;15.26;100.00;96875.95;107213;1273;22630;-79
2023/08/02 03:02:48;;;;;;;9.80;6.40;;;;;;;15.23;100.00;96878.98;107238;1274;22524;-79
2023/08/02 03:05:17;;;;;;;11.00;6.70;;;;;;;15.20;100.00;96876.73;107280;1274;22514;-79
2023/08/02 03:07:46;;;;;;;8.80;6.40;;;;;;;15.20;100.00;96877.84;107231;1274;22630;-78
2023/08/02 03:10:14;;;;;;;10.50;6.80;;;;;;;15.19;100.00;96877.65;107292;1274;22638;-78
2023/08/02 03:12:42;;;;;;;7.70;6.10;;;;;;;15.17;100.00;96876.05;107243;1274;24374;-79
2023/08/02 03:15:10;;;;;;;8.20;5.90;;;;;;;15.13;100.00;96879.92;107274;1251;24309;-80
2023/08/02 03:17:38;;;;;;;8.10;6.20;;;;;;;15.12;100.00;96884.70;107286;1274;22613;-79
2023/08/02 03:20:07;;;;;;;9.90;6.20;;;;;;;15.09;100.00;96880.61;107300;1274;25530;-79
2023/08/02 03:22:35;;;;;;;8.10;5.70;;;;;;;15.08;100.00;96882.90;107300;1274;22595;-79
2023/08/02 03:25:03;;;;;;;9.50;6.50;;;;;;;15.08;100.00;96888.01;107240;1274;22640;-79
2023/08/02 03:27:31;;;;;;;10.50;6.60;;;;;;;15.07;100.00;96891.25;107135;1274;22534;-79
2023/08/02 03:29:59;;;;;;;10.40;7.60;;;;;;;15.05;100.00;96892.38;107232;1274;25579;-77
2023/08/02 03:32:27;;;;;;;12.10;6.50;;;;;;;15.01;100.00;96889.17;107134;1274;22537;-77
2023/08/02 03:34:55;;;;;;;10.30;6.50;;;;;;;14.99;100.00;96897.18;107278;1269;22593;-77
2023/08/02 03:37:23;;;;;;;11.10;6.80;;;;;;;14.97;100.00;96897.15;107309;1274;22611;-78
2023/08/02 03:39:51;;;;;;;13.90;6.90;;;;;;;14.97;100.00;96897.46;107228;1274;22605;-78
2023/08/02 03:42:19;;;;;;;12.90;6.90;;;;;;;14.95;100.00;96894.79;107227;1274;22923;-77
2023/08/02 03:44:47;;;;;;;9.30;6.50;;;;;;;14.95;100.00;96893.45;107266;1262;22657;-77
2023/08/02 03:47:14;;;;;;;9.00;6.50;;;;;;;14.93;100.00;96897.23;107235;1274;22513;-77
2023/08/02 03:49:42;;;;;;;7.60;6.30;;;;;;;14.90;100.00;96903.18;107275;1274;24258;-78
2023/08/02 03:52:10;;;;;;;9.10;6.90;;;;;;;14.90;100.00;96901.16;107245;1274;22765;-77
2023/08/02 03:54:38;;;;;;;9.10;6.60;;;;;;;14.88;100.00;96898.27;107232;1274;25483;-77
2023/08/02 03:57:07;;;;;;;12.00;7.30;;;;;;;14.86;100.00;96895.25;107317;1274;24200;-78
2023/08/02 03:59:35;;;;;;;9.20;6.90;;;;;;;14.86;100.00;96893.84;107279;1274;24236;-77
2023/08/02 04:02:03;;;;;;;10.20;6.60;;;;;;;14.85;100.00;96898.48;107313;1274;25353;-78
2023/08/02 04:04:31;;;;;;;7.60;6.70;;;;;;;14.84;100.00;96898.63;107277;1274;23376;-78
2023/08/02 04:06:59;;;;;;;8.00;7.00;;;;;;;14.82;100.00;96902.30;107300;1274;24973;-78
2023/08/02 04:09:27;;;;;;;13.20;6.60;;;;;;;14.83;100.00;96900.66;107274;1274;25458;-80
2023/08/02 04:11:55;;;;;;;9.60;6.70;;;;;;;14.81;100.00;96899.08;107336;1274;22619;-78
2023/08/02 04:14:23;;;;;;;9.90;6.70;;;;;;;14.82;100.00;96903.52;107211;1274;22524;-81
2023/08/02 04:16:51;;;;;;;8.50;6.40;;;;;;;14.83;100.00;96909.59;107197;1251;22550;-80
2023/08/02 04:19:19;;;;;;;10.40;6.30;;;;;;;14.85;100.00;96909.79;107237;1274;25399;-80
2023/08/02 04:21:47;;;;;;;9.50;7.20;;;;;;;14.84;100.00;96905.27;107309;1274;26563;-79
2023/08/02 04:24:15;;;;;;;10.10;6.50;;;;;;;14.84;100.00;96902.80;107368;1274;26285;-80
2023/08/02 04:26:43;;;;;;;9.90;7.90;;;;;;;14.84;100.00;96906.36;107282;1274;22669;-82
2023/08/02 04:29:12;;;;;;;11.00;7.70;;;;;;;14.86;100.00;96911.45;107296;1274;22514;-81
2023/08/02 04:31:40;;;;;;;8.80;6.50;;;;;;;14.88;100.00;96907.48;107276;1274;22610;-79
2023/08/02 04:34:08;;;;;;;13.20;7.50;;;;;;;14.87;100.00;96914.80;107275;1274;24437;-79
2023/08/02 04:36:36;;;;;;;10.20;7.40;;;;;;;14.90;100.00;96919.29;107362;1274;24647;-81
2023/08/02 04:39:06;;;;;;;9.80;7.10;;;;;;;14.89;100.00;96921.68;107523;1274;22773;-83
2023/08/02 04:41:34;;;;;;;9.40;7.80;;;;;;;14.91;100.00;96925.60;107532;1274;23887;-80
2023/08/02 04:44:03;;;;;;;10.40;7.50;;;;;;;14.92;100.00;96924.09;107006;1274;22776;-80
2023/08/02 04:46:30;;;;;;;9.40;7.00;;;;;;;14.96;100.00;96924.27;107272;1255;22536;-80
2023/08/02 04:48:59;;;;;;;8.60;7.10;;;;;;;14.98;100.00;96921.98;107221;1274;22655;-81
2023/08/02 04:51:27;;;;;;;10.80;7.40;;;;;;;14.98;100.00;96922.52;107255;1274;24153;-81
2023/08/02 04:53:55;;;;;;;10.70;7.70;;;;;;;15.02;100.00;96928.17;107201;1274;24200;-80
2023/08/02 04:56:22;;;;;;;16.40;7.30;;;;;;;15.06;100.00;96929.05;107192;1274;25275;-79
2023/08/02 04:58:50;;;;;;;11.50;6.50;;;;;;;15.06;100.00;96932.14;107299;1274;25442;-81
2023/08/02 05:01:18;;;;;;;11.00;7.60;;;;;;;15.08;100.00;96928.48;107311;1274;22596;-81
2023/08/02 05:03:46;;;;;;;14.10;6.90;;;;;;;15.15;100.00;96923.52;107267;1274;22784;-82
2023/08/02 05:06:15;;;;;;;10.80;7.10;;;;;;;15.22;100.00;96925.72;107314;1266;22623;-81
2023/08/02 05:08:43;;;;;;;11.40;6.50;;;;;;;15.27;100.00;96924.42;107049;1274;24290;-81
2023/08/02 05:11:10;;;;;;;10.60;6.60;;;;;;;15.28;100.00;96918.47;107298;1274;22683;-81
2023/08/02 05:13:38;;;;;;;9.00;6.50;;;;;;;15.33;100.00;96923.17;107359;1274;24294;-79
2023/08/02 05:16:12;;;;;;;14.00;7.20;;;;;;;15.40;100.00;96922.26;107309;1270;22655;-82
2023/08/02 05:18:41;;;;;;;12.20;7.00;;;;;;;15.45;100.00;96920.88;107229;1274;23279;-80
2023/08/02 05:21:16;;;;;;;13.20;7.90;;;;;;;15.47;100.00;96923.58;107330;1274;22626;-81
2023/08/02 05:23:44;;;;;;;12.40;7.90;;;;;;;15.44;100.00;96921.88;107370;1274;22658;-81
2023/08/02 05:26:13;;;;;;;11.80;7.10;;;;;;;15.49;100.00;96921.05;107847;1262;22585;-81
2023/08/02 05:28:41;;;;;;;10.70;6.90;;;;;;;15.53;100.00;96924.85;107398;1270;22564;-82
2023/08/02 05:31:10;;;;;;;9.90;7.30;;;;;;;15.58;100.00;96930.39;107373;1272;25403;-82
2023/08/02 05:33:40;;;;;;;7.90;6.10;;;;;;;15.62;100.00;96927.54;107393;1273;22528;-82
2023/08/02 05:36:11;;;;;;;10.60;6.40;;;;;;;15.68;100.00;96926.36;107303;1267;25230;-80
2023/08/02 05:38:39;;;;;;;12.60;6.80;;;;;;;15.74;100.00;96925.55;107370;1274;22528;-80
2023/08/02 05:41:07;;;;;;;8.50;6.10;;;;;;;15.80;100.00;96922.96;107363;1273;22551;-81
2023/08/02 05:43:36;;;;;;;14.40;6.20;;;;;;;15.84;100.00;96926.09;107326;1273;25408;-80
2023/08/02 05:46:04;;;;;;;8.40;5.80;;;;;;;15.94;100.00;96931.48;107382;1252;24219;-80
2023/08/02 05:48:32;;;;;;;10.80;6.20;;;;;;;16.03;100.00;96925.98;107373;1273;22596;-80
2023/08/02 05:51:00;;;;;;;9.80;6.00;;;;;;;16.13;100.00;96935.75;107401;1273;22718;-81
2023/08/02 05:53:28;;;;;;;8.60;5.70;;;;;;;16.19;100.00;96938.49;107363;1273;22590;-81
2023/08/02 05:55:57;;;;;;;8.40;6.20;;;;;;;16.26;100.00;96942.29;107434;1272;23227;-81
2023/08/02 05:58:25;;;;;;;9.20;5.50;;;;;;;16.28;100.00;96942.73;107612;1272;22555;-81
2023/08/02 06:00:53;;;;;;;10.40;6.60;;;;;;;16.37;100.00;96943.52;107623;1272;22537;-81
2023/08/02 06:03:21;;;;;;;7.80;6.10;;;;;;;16.44;100.00;96948.45;107633;1272;25331;-81
2023/08/02 06:05:50;;;;;;;14.50;7.60;;;;;;;16.47;100.00;96948.88;107660;1272;22512;-81
2023/08/02 06:08:18;;;;;;;14.60;9.20;;;;;;;16.47;100.00;96943.98;107548;1270;25416;-81
2023/08/02 06:10:46;;;;;;;27.20;16.10;;;;;;;16.56;100.00;96941.83;107284;1273;24218;-81
2023/08/02 06:13:14;;;;;;;34.90;19.40;;;;;;;16.66;100.00;96942.23;107293;1274;22540;-81
2023/08/02 06:15:42;;;;;;;14.60;7.40;;;;;;;16.79;100.00;96944.59;107334;1273;23918;-81
2023/08/02 06:18:10;;;;;;;8.50;5.80;;;;;;;16.91;100.00;96944.04;107416;1273;22545;-81
2023/08/02 06:20:38;;;;;;;8.70;5.70;;;;;;;16.96;100.00;96955.64;107416;1272;22617;-81
2023/08/02 06:23:06;;;;;;;9.60;5.70;;;;;;;17.00;100.00;96957.95;107586;1272;22990;-80
2023/08/02 06:25:34;;;;;;;12.20;7.20;;;;;;;17.11;100.00;96956.10;107376;1272;24084;-81
2023/08/02 06:28:02;;;;;;;11.60;6.00;;;;;;;17.20;100.00;96957.33;107629;1272;25268;-80
2023/08/02 06:30:30;;;;;;;8.40;5.30;;;;;;;17.29;100.00;96956.22;107595;1273;22514;-81
2023/08/02 06:32:58;;;;;;;8.40;5.30;;;;;;;17.34;100.00;96949.75;107380;1270;24195;-81
2023/08/02 06:35:27;;;;;;;7.90;5.70;;;;;;;17.49;100.00;96949.52;107402;1266;24207;-81
2023/08/02 06:37:54;;;;;;;8.30;5.10;;;;;;;17.54;100.00;96933.58;107449;1272;25252;-81
2023/08/02 06:40:22;;;;;;;6.30;5.00;;;;;;;17.74;100.00;96955.80;107472;1272;25398;-81
2023/08/02 06:42:50;;;;;;;11.30;4.80;;;;;;;17.84;100.00;96956.52;107353;1270;25210;-81
2023/08/02 06:45:18;;;;;;;8.60;5.30;;;;;;;17.88;100.00;96955.02;107540;1266;25312;-81
2023/08/02 06:47:46;;;;;;;7.00;5.00;;;;;;;17.94;100.00;96960.99;107710;1272;25633;-81
2023/08/02 06:50:14;;;;;;;10.20;4.40;;;;;;;18.05;100.00;96961.37;107367;1272;22570;-81
2023/08/02 06:52:42;;;;;;;12.10;4.90;;;;;;;18.23;100.00;96959.16;107325;1272;22529;-82
2023/08/02 06:55:10;;;;;;;6.60;4.60;;;;;;;18.23;100.00;96965.48;107379;1272;25499;-82
2023/08/02 06:57:38;;;;;;;6.50;4.30;;;;;;;18.25;99.98;96964.97;107425;1264;25665;-82
2023/08/02 07:00:07;;;;;;;5.00;4.10;;;;;;;18.33;100.00;96964.75;107525;1272;22626;-82
2023/08/02 07:02:35;;;;;;;7.30;4.50;;;;;;;18.50;100.00;96967.89;107396;1266;22550;-82
2023/08/02 07:05:07;;;;;;;6.10;4.10;;;;;;;18.59;98.29;96975.23;107371;1272;22522;-82
2023/08/02 07:07:37;;;;;;;5.10;3.80;;;;;;;18.69;99.30;96970.42;107418;1272;22521;-82
2023/08/02 07:10:06;;;;;;;5.60;4.30;;;;;;;18.77;98.61;96970.29;107304;1273;25457;-82
2023/08/02 07:12:34;;;;;;;5.60;4.10;;;;;;;18.81;96.85;96972.14;107151;1274;22623;-83
2023/08/02 07:15:02;;;;;;;6.40;3.90;;;;;;;18.91;96.70;96977.46;107281;1274;24541;-80
2023/08/02 07:17:30;;;;;;;7.70;4.10;;;;;;;19.00;96.11;96975.59;107555;1266;25315;-81
2023/08/02 07:19:58;;;;;;;7.20;4.20;;;;;;;19.05;95.16;96974.33;107498;1272;25461;-82
2023/08/02 07:22:26;;;;;;;4.50;3.30;;;;;;;19.11;93.76;96977.95;107543;1272;22619;-82
2023/08/02 07:24:53;;;;;;;6.70;3.90;;;;;;;19.17;94.52;96983.00;107530;1272;22608;-82
2023/08/02 07:27:21;;;;;;;8.00;4.30;;;;;;;19.25;92.14;96984.61;107578;1268;24218;-82
2023/08/02 07:29:51;;;;;;;5.60;3.70;;;;;;;19.22;91.74;96986.62;107614;1272;22630;-82
2023/08/02 07:32:19;;;;;;;4.40;3.50;;;;;;;19.11;91.76;96987.38;107613;1272;23911;-83
2023/08/02 07:34:47;;;;;;;8.30;4.30;;;;;;;19.15;91.22;96991.80;107528;1271;22547;-83
2023/08/02 07:37:15;;;;;;;8.30;3.60;;;;;;;19.27;90.53;96990.09;107571;1266;22526;-82
2023/08/02 07:39:43;;;;;;;5.90;3.60;;;;;;;19.38;90.52;96990.11;107311;1271;22600;-82
2023/08/02 07:42:11;;;;;;;6.20;3.20;;;;;;;19.45;87.13;96995.92;107538;1272;22575;-82
2023/08/02 07:44:39;;;;;;;5.20;3.20;;;;;;;19.33;85.31;96999.20;107605;1272;22620;-83
2023/08/02 07:47:08;;;;;;;6.90;3.40;;;;;;;19.24;85.30;96995.77;107674;1272;22976;-81
2023/08/02 07:49:37;;;;;;;5.20;3.40;;;;;;;19.30;86.57;96985.52;107573;1272;22733;-82
2023/08/02 07:52:05;;;;;;;4.40;3.10;;;;;;;19.48;84.01;96979.57;107561;1266;22602;-81
2023/08/02 07:54:33;;;;;;;5.50;3.50;;;;;;;19.68;84.57;96977.30;107585;1272;23277;-82
2023/08/02 07:57:13;;;;;;;6.60;3.50;;;;;;;20.00;85.87;96984.05;107477;1271;22532;-82
2023/08/02 07:59:41;;;;;;;8.40;3.50;;;;;;;20.23;85.84;96983.77;107627;1266;23398;-83
2023/08/02 08:02:09;;;;;;;4.20;2.90;;;;;;;20.35;86.66;96983.90;107481;1270;24356;-83
2023/08/02 08:04:37;;;;;;;5.50;3.00;;;;;;;20.58;86.83;96989.41;107484;1272;22767;-83
2023/08/02 08:07:05;;;;;;;6.50;3.50;;;;;;;20.68;82.14;96993.65;107503;1272;22516;-82
2023/08/02 08:09:34;;;;;;;5.30;3.20;;;;;;;20.71;82.98;96987.33;107581;1267;25980;-82
2023/08/02 08:12:04;;;;;;;7.90;3.00;;;;;;;20.69;82.01;96985.91;107522;1256;24364;-81
2023/08/02 08:14:33;;;;;;;6.90;3.20;;;;;;;20.57;83.31;96983.21;107448;1256;24446;-81
2023/08/02 08:17:01;;;;;;;4.60;2.90;;;;;;;20.68;81.12;96980.35;107465;1273;25527;-81
2023/08/02 08:19:33;;;;;;;6.50;3.30;;;;;;;20.72;81.10;96969.73;107510;1258;25705;-82
2023/08/02 08:22:01;;;;;;;4.80;2.70;;;;;;;20.89;81.11;96959.92;107669;1273;23509;-82
2023/08/02 08:24:29;;;;;;;7.40;3.10;;;;;;;21.08;81.83;96949.35;107500;1273;22522;-82
2023/08/02 08:26:57;;;;;;;4.90;3.00;;;;;;;21.32;80.79;96942.63;107456;1273;22518;-80
2023/08/02 08:29:27;;;;;;;5.80;2.80;;;;;;;21.52;79.26;96956.42;107456;1252;24260;-81
2023/08/02 08:31:55;;;;;;;4.00;2.80;;;;;;;21.56;79.59;96957.73;107515;1272;24180;-81
2023/08/02 08:34:23;;;;;;;9.10;3.10;;;;;;;21.40;73.72;96963.61;107546;1272;24121;-81
2023/08/02 08:36:51;;;;;;;4.00;3.10;;;;;;;21.11;73.87;96966.80;107760;1272;24212;-81
2023/08/02 08:39:19;;;;;;;5.10;3.10;;;;;;;21.06;76.26;96963.13;107726;1272;25464;-82
2023/08/02 08:41:47;;;;;;;4.30;2.80;;;;;;;21.09;76.00;96964.85;107786;1272;22553;-81
2023/08/02 08:44:15;;;;;;;7.10;3.20;;;;;;;21.00;74.30;96965.31;107716;1272;22653;-82
2023/08/02 08:46:44;;;;;;;4.80;3.10;;;;;;;20.74;73.76;96969.03;107734;1272;22602;-82
2023/08/02 08:49:12;;;;;;;5.60;2.90;;;;;;;20.58;72.33;96969.45;107725;1272;25309;-82
2023/08/02 08:51:49;;;;;;;4.50;3.10;;;;;;;20.36;71.80;96974.38;107631;1270;22623;-81
2023/08/02 08:54:23;;;;;;;6.50;2.90;;;;;;;20.19;71.80;96973.91;107611;1272;25535;-81
2023/08/02 08:56:52;;;;;;;4.30;2.70;;;;;;;20.24;73.27;96976.20;107504;1272;26647;-81
2023/08/02 08:59:21;;;;;;;3.80;2.90;;;;;;;20.48;72.85;96969.57;107485;1273;22555;-81
2023/08/02 09:01:49;;;;;;;6.10;3.00;;;;;;;20.77;72.89;96968.40;107422;1273;25367;-81
2023/08/02 09:04:18;;;;;;;5.20;2.70;;;;;;;21.06;72.45;96967.05;107412;1273;22521;-81
2023/08/02 09:06:45;;;;;;;6.10;2.70;;;;;;;21.33;72.82;96968.39;107393;1273;22613;-80
2023/08/02 09:09:14;;;;;;;4.00;2.60;;;;;;;21.65;72.87;96963.67;107005;1273;24230;-80
2023/08/02 09:11:43;;;;;;;5.10;2.40;;;;;;;21.81;70.13;96972.57;107500;1272;24256;-80
2023/08/02 09:14:16;;;;;;;4.20;2.90;;;;;;;21.86;70.15;96975.85;107467;1273;23250;-80
2023/08/02 09:16:57;;;;;;;3.80;2.30;;;;;;;21.96;70.02;96972.53;107450;1273;22513;-80
2023/08/02 09:19:28;;;;;;;5.70;2.70;;;;;;;22.00;68.17;96974.88;107553;1269;24331;-81
2023/08/02 09:22:12;;;;;;;3.60;2.60;;;;;;;22.08;69.51;96967.41;107564;1267;22517;-81
2023/08/02 09:24:43;;;;;;;4.30;2.70;;;;;;;22.20;69.11;96955.23;107461;1269;22616;-82
2023/08/02 09:27:20;;;;;;;3.00;2.20;;;;;;;22.24;67.73;96958.36;107526;1273;25366;-81
2023/08/02 09:29:54;;;;;;;3.40;2.30;;;;;;;22.24;66.68;96954.52;107353;1273;22678;-83
2023/08/02 09:32:26;;;;;;;4.60;2.40;;;;;;;22.23;64.40;96960.73;107429;1267;22547;-80
2023/08/02 09:34:58;;;;;;;3.70;2.80;;;;;;;22.09;65.22;96964.20;107458;1269;23243;-81
2023/08/02 09:37:34;;;;;;;6.00;2.60;;;;;;;22.07;65.56;96967.33;107379;1274;22566;-82
2023/08/02 09:40:04;;;;;;;3.70;1.90;;;;;;;22.13;64.65;96964.50;107594;1267;22533;-82
2023/08/02 09:42:32;;;;;;;3.20;1.70;;;;;;;22.04;61.22;96969.62;107517;1266;22620;-82
2023/08/02 09:45:06;;;;;;;3.60;2.40;;;;;;;21.92;61.22;96966.05;107398;1272;22636;-81
2023/08/02 09:47:34;;;;;;;6.60;2.60;;;;;;;22.03;63.23;96973.23;107594;1272;22996;-82
2023/08/02 09:50:02;;;;;;;2.30;2.00;;;;;;;22.16;62.23;96964.96;107479;1262;22535;-81
2023/08/02 09:52:30;;;;;;;6.20;2.60;;;;;;;22.11;62.29;96961.83;107462;1273;22531;-81
2023/08/02 09:54:58;;;;;;;4.20;2.60;;;;;;;22.25;61.79;96964.48;107435;1272;24218;-82
2023/08/02 09:57:29;;;;;;;5.40;2.30;;;;;;;22.24;60.62;96960.40;107458;1273;22642;-83
2023/08/02 10:00:04;;;;;;;7.30;2.40;;;;;;;22.27;60.90;96952.71;107460;1273;24044;-81
2023/08/02 10:02:39;;;;;;;5.20;2.30;;;;;;;22.45;61.41;96959.76;107459;1270;25328;-81
2023/08/02 10:05:12;;;;;;;3.70;2.20;;;;;;;22.68;61.55;96965.35;107545;1273;24252;-80
2023/08/02 10:07:46;;;;;;;3.70;2.20;;;;;;;22.89;61.99;96960.91;107416;1272;22606;-80
2023/08/02 10:10:37;;;;;;;4.20;2.20;;;;;;;23.03;61.06;96957.08;107568;1272;22565;-81
2023/08/02 10:13:14;;;;;;;3.80;1.80;;;;;;;23.23;61.16;96950.25;107562;1272;22617;-83
2023/08/02 10:15:42;;;;;;;4.00;1.60;;;;;;;23.28;59.58;96947.45;107475;1272;22734;-82
2023/08/02 10:18:12;;;;;;;3.80;2.20;;;;;;;23.33;59.16;96941.76;107346;1272;24466;-81
2023/08/02 10:20:40;;;;;;;5.70;2.40;;;;;;;23.34;56.40;96950.00;107458;1272;22632;-81
2023/08/02 10:23:08;;;;;;;10.30;2.60;;;;;;;23.15;56.95;96939.31;107505;1272;22562;-81
2023/08/02 10:25:36;;;;;;;4.50;2.40;;;;;;;23.03;57.26;96939.57;107483;1267;25638;-81
2023/08/02 10:28:05;;;;;;;5.30;2.70;;;;;;;22.78;58.09;96936.41;107532;1272;22613;-80
2023/08/02 10:30:35;;;;;;;4.10;2.60;;;;;;;22.59;57.97;96933.64;107468;1273;22525;-81
2023/08/02 10:33:30;;;;;;;6.40;2.30;;;;;;;22.61;57.59;96928.38;107474;1272;24047;-80
2023/08/02 10:35:58;;;;;;;;;;;;;;;22.78;57.73;96921.91;107507;1264;22522;-79
2023/08/02 10:38:47;;;;;;;6.60;2.40;;;;;;;22.85;57.03;96924.69;107524;1272;22525;-79
2023/08/02 10:41:20;;;;;;;2.90;1.60;;;;;;;22.92;56.34;96922.98;107447;1266;22640;-80
2023/08/02 10:43:51;;;;;;;1.60;1.40;;;;;;;23.03;56.39;96918.69;107481;1273;22537;-79
2023/08/02 10:46:27;;;;;;;4.90;1.90;;;;;;;23.18;56.61;96912.38;107542;1269;22574;-82
2023/08/02 10:49:15;;;;;;;4.10;1.80;;;;;;;23.38;57.25;96911.39;107599;1272;22543;-78
2023/08/02 10:51:45;;;;;;;4.30;1.90;;;;;;;23.66;54.67;96924.63;107596;1272;25382;-79
2023/08/02 10:54:25;;;;;;;3.70;2.10;;;;;;;23.63;54.81;96912.17;107627;1273;22643;-79
2023/08/02 10:56:53;;;;;;;2.50;1.70;;;;;;;23.76;55.38;96911.90;107617;1272;25369;-79
2023/08/02 10:59:24;;;;;;;4.00;2.10;;;;;;;23.90;54.33;96914.10;107180;1268;25382;-79
2023/08/02 11:02:12;;;;;;;4.50;2.00;;;;;;;23.92;53.76;96905.35;107598;1266;22514;-79
2023/08/02 11:04:46;;;;;;;4.10;2.10;;;;;;;24.02;53.44;96898.88;107585;1267;22640;-79
2023/08/02 11:07:16;;;;;;;4.20;2.50;;;;;;;24.09;54.39;96898.48;107667;1267;25571;-79
2023/08/02 11:09:49;;;;;;;2.70;1.50;;;;;;;24.26;53.05;96904.55;107494;1271;25375;-78
2023/08/02 11:12:19;;;;;;;2.60;1.70;;;;;;;24.31;52.28;96903.61;107211;1272;24432;-77
2023/08/02 11:14:52;;;;;;;7.10;1.90;;;;;;;24.47;52.61;96893.83;107159;1273;22541;-77
2023/08/02 11:17:22;;;;;;;3.50;1.60;;;;;;;24.66;51.26;96897.10;107095;1272;22636;-77
2023/08/02 11:19:54;;;;;;;3.20;1.60;;;;;;;24.59;49.56;96893.89;107558;1272;24305;-78
2023/08/02 11:22:25;;;;;;;2.60;1.50;;;;;;;24.62;48.64;96895.34;107386;1274;24414;-78
2023/08/02 11:24:56;;;;;;;3.30;1.70;;;;;;;24.54;47.67;96894.36;107450;1274;22525;-80
2023/08/02 11:27:26;;;;;;;15.10;9.30;;;;;;;24.48;46.82;96893.81;107364;1274;24371;-80
2023/08/02 11:30:20;;;;;;;8.70;4.30;;;;;;;24.38;46.85;96884.88;107417;1266;25378;-79